Time;durP1;ratioP1;P1;durP2;ratioP2;P2;SDS_P1;SDS_P2;PMS_P1;PMS_P2;Temp;Humidity;BMP_temperature;BMP_pressure;BME280_temperature;BME280_humidity;BME280_pressure;Samples;Min_cycle;Max_cycle;Signal;HPM_P1;HPM_P2
2022/02/04 00:23:53;;;;;;;10.23;4.90;;;-1.00;99.90;;;;;;5092578;28;20122;-78
2022/02/04 00:26:26;;;;;;;11.98;5.30;;;-0.90;99.90;;;;;;5092236;28;20024;-81
2022/02/04 00:31:44;;;;;;;12.68;5.78;;;-0.80;99.90;;;;;;5092381;28;20040;-78
2022/02/04 00:34:14;;;;;;;12.45;5.95;;;-0.90;99.90;;;;;;5090891;28;20464;-80
2022/02/04 00:36:54;;;;;;;10.68;5.07;;;-0.90;99.90;;;;;;5090657;28;20027;-78
2022/02/04 00:39:28;;;;;;;14.52;6.20;;;-0.80;99.90;;;;;;5090752;28;20085;-78
2022/02/04 00:41:59;;;;;;;10.70;5.10;;;-0.90;99.90;;;;;;5090803;28;20016;-78
2022/02/04 00:44:28;;;;;;;13.93;6.35;;;-0.90;99.90;;;;;;5091642;28;20024;-78
2022/02/04 00:47:01;;;;;;;12.70;5.95;;;-0.90;99.90;;;;;;5094354;28;20012;-78
2022/02/04 00:53:07;;;;;;;12.32;6.13;;;-0.80;99.90;;;;;;5095582;28;20063;-79
2022/02/04 01:27:10;;;;;;;20.55;5.78;;;-0.90;99.90;;;;;;5095237;28;20103;-78
2022/02/04 01:29:47;;;;;;;13.63;5.90;;;-0.90;99.90;;;;;;5093668;28;20040;-78
2022/02/04 01:32:13;;;;;;;13.40;6.05;;;-0.90;99.90;;;;;;5093731;28;20089;-79
2022/02/04 01:34:39;;;;;;;13.85;6.20;;;-1.00;99.90;;;;;;5093513;28;20020;-78
2022/02/04 01:37:04;;;;;;;15.35;6.20;;;-0.90;99.90;;;;;;5093506;28;20368;-78
2022/02/04 01:39:30;;;;;;;12.15;5.45;;;-0.90;99.90;;;;;;5094812;28;20078;-79
2022/02/04 01:41:56;;;;;;;11.50;6.07;;;-0.90;99.90;;;;;;5093425;28;20028;-78
2022/02/04 01:44:22;;;;;;;12.07;5.85;;;-0.90;99.90;;;;;;5094790;28;20024;-78
2022/02/04 01:46:48;;;;;;;12.77;6.50;;;-0.90;99.90;;;;;;5093260;28;20047;-78
2022/02/04 01:49:13;;;;;;;12.40;6.55;;;-0.90;99.90;;;;;;5092966;28;20035;-78
2022/02/04 01:51:39;;;;;;;12.90;6.68;;;-0.90;99.90;;;;;;5094150;28;20040;-79
2022/02/04 01:54:05;;;;;;;12.93;6.00;;;-0.70;99.90;;;;;;5095379;28;20058;-79
2022/02/04 01:56:30;;;;;;;15.05;6.72;;;-0.90;99.90;;;;;;5093497;28;20020;-76
2022/02/04 01:58:56;;;;;;;14.43;6.68;;;-0.90;99.90;;;;;;5095173;28;20550;-81
2022/02/04 02:01:23;;;;;;;12.93;6.68;;;-0.90;99.90;;;;;;5094913;28;20383;-78
2022/02/04 02:03:49;;;;;;;12.48;6.63;;;-1.00;99.90;;;;;;5093609;28;20103;-78
2022/02/04 02:06:57;;;;;;;13.23;6.22;;;-0.90;99.90;;;;;;5093301;28;20509;-79
2022/02/04 02:09:30;;;;;;;11.23;5.85;;;-0.90;99.90;;;;;;5093059;28;20040;-78
2022/02/04 02:12:00;;;;;;;15.60;6.28;;;-0.90;99.90;;;;;;5093048;28;20032;-78
2022/02/04 02:14:28;;;;;;;9.38;5.85;;;-0.90;99.90;;;;;;5093132;28;20487;-78
2022/02/04 02:39:26;;;;;;;15.25;6.28;;;-1.10;99.90;;;;;;5094173;28;20092;-78
2022/02/04 02:59:54;;;;;;;12.82;4.97;;;-1.40;99.90;;;;;;5093319;28;20046;-78
2022/02/04 03:02:20;;;;;;;12.55;6.03;;;-1.40;99.90;;;;;;5091728;28;20039;-78
2022/02/04 03:04:46;;;;;;;11.70;6.22;;;-1.50;99.90;;;;;;5093292;28;20016;-77
2022/02/04 03:07:12;;;;;;;10.25;6.20;;;-1.50;99.90;;;;;;5092864;28;20099;-78
2022/02/04 03:09:37;;;;;;;13.60;5.53;;;-1.50;99.90;;;;;;5092521;28;20024;-77
2022/02/04 03:12:04;;;;;;;13.63;6.47;;;-1.50;99.90;;;;;;5091565;28;20063;-78
2022/02/04 03:14:30;;;;;;;10.10;5.88;;;-1.60;99.90;;;;;;5093322;28;20016;-77
2022/02/04 03:16:56;;;;;;;9.50;5.13;;;-1.60;99.90;;;;;;5092788;28;20031;-77
2022/02/04 03:19:23;;;;;;;9.20;5.28;;;-1.60;99.90;;;;;;5091420;28;20027;-79
2022/02/04 03:21:49;;;;;;;11.40;5.95;;;-1.40;99.90;;;;;;5091555;28;20137;-77
2022/02/04 03:24:19;;;;;;;14.13;6.07;;;-1.40;99.90;;;;;;5091520;28;20753;-75
2022/02/04 03:26:52;;;;;;;12.63;6.38;;;-1.60;99.90;;;;;;5092763;28;20020;-78
2022/02/04 03:29:25;;;;;;;10.00;5.32;;;-1.60;99.90;;;;;;5090923;28;20036;-79
2022/02/04 03:31:56;;;;;;;10.85;5.22;;;-1.60;99.90;;;;;;5091478;28;20051;-76
2022/02/04 03:34:22;;;;;;;18.25;6.20;;;-1.60;99.90;;;;;;5091297;28;20063;-79
2022/02/04 03:36:47;;;;;;;17.63;5.90;;;-1.60;99.90;;;;;;5091763;28;20105;-78
2022/02/04 03:39:13;;;;;;;9.93;4.68;;;-1.60;99.90;;;;;;5092621;28;20030;-79
2022/02/04 03:41:39;;;;;;;8.65;5.13;;;-1.70;99.90;;;;;;5091513;28;20028;-79
2022/02/04 03:44:05;;;;;;;11.43;5.60;;;-1.70;99.90;;;;;;5092443;28;20024;-77
2022/02/04 03:46:30;;;;;;;10.07;5.18;;;-1.70;99.90;;;;;;5091601;28;20496;-78
2022/02/04 03:48:56;;;;;;;9.95;5.80;;;-1.80;99.90;;;;;;5091191;28;20074;-78
2022/02/04 03:51:22;;;;;;;12.10;5.45;;;-1.80;99.90;;;;;;5092375;28;20040;-77
2022/02/04 03:53:48;;;;;;;9.05;5.07;;;-1.80;99.90;;;;;;5092436;28;20025;-78
2022/02/04 03:56:13;;;;;;;10.98;4.93;;;-1.60;99.90;;;;;;5092701;28;20028;-77
2022/02/04 03:58:39;;;;;;;12.55;5.28;;;-1.90;99.90;;;;;;5092260;28;20024;-77
2022/02/04 04:01:05;;;;;;;10.38;5.90;;;-1.90;99.90;;;;;;5091115;28;20107;-77
2022/02/04 04:03:32;;;;;;;10.73;4.72;;;-1.90;99.90;;;;;;5092389;28;20468;-76
2022/02/04 04:05:57;;;;;;;7.95;5.70;;;-1.90;99.90;;;;;;5091985;28;20028;-78
2022/02/04 04:08:23;;;;;;;9.75;6.95;;;-2.00;99.90;;;;;;5092069;28;20106;-78
2022/02/04 04:10:51;;;;;;;6.75;3.92;;;-2.10;99.90;;;;;;5092105;28;20035;-78
2022/02/04 04:13:17;;;;;;;13.38;4.65;;;-1.90;99.90;;;;;;5092454;28;20604;-78
2022/02/04 04:15:43;;;;;;;8.65;5.05;;;-2.10;99.90;;;;;;5092220;28;20032;-78
2022/02/04 04:18:12;;;;;;;9.38;4.72;;;-2.10;99.90;;;;;;5091061;28;20039;-77
2022/02/04 04:20:42;;;;;;;8.75;4.60;;;-2.10;99.90;;;;;;5093639;28;20020;-78
2022/02/04 04:23:09;;;;;;;8.57;4.43;;;-2.20;99.90;;;;;;5094888;28;20024;-80
2022/02/04 04:25:34;;;;;;;24.98;9.02;;;-2.20;99.90;;;;;;5096315;28;20027;-78
2022/02/04 04:28:00;;;;;;;12.10;5.90;;;-2.20;99.90;;;;;;5096209;28;20028;-79
2022/02/04 04:30:26;;;;;;;13.27;6.18;;;-2.20;99.90;;;;;;5094765;28;20040;-79
2022/02/04 04:32:54;;;;;;;15.93;8.48;;;-2.30;99.90;;;;;;5094686;28;20039;-78
2022/02/04 04:35:24;;;;;;;17.38;7.53;;;-2.30;99.90;;;;;;5094890;28;20112;-77
2022/02/04 04:40:59;;;;;;;13.43;7.47;;;-2.30;99.90;;;;;;5095965;28;20081;-78
2022/02/04 05:29:14;;;;;;;14.68;8.25;;;-2.40;99.90;;;;;;5094445;28;20131;-77
2022/02/04 05:31:40;;;;;;;19.73;10.38;;;-2.40;99.90;;;;;;5092200;28;20032;-78
2022/02/04 05:34:06;;;;;;;19.25;11.18;;;-2.30;99.90;;;;;;5094836;28;20034;-79
2022/02/04 05:36:35;;;;;;;17.85;9.68;;;-2.30;99.90;;;;;;5096438;28;20031;-80
2022/02/04 05:39:01;;;;;;;12.20;7.13;;;-2.30;99.90;;;;;;5094338;28;20026;-79
2022/02/04 05:41:31;;;;;;;12.05;6.85;;;-2.40;99.90;;;;;;5095854;28;20519;-79
2022/02/04 05:44:01;;;;;;;12.50;7.38;;;-2.40;99.90;;;;;;5094111;28;20028;-81
2022/02/04 05:46:31;;;;;;;13.88;7.40;;;-1.90;99.90;;;;;;5094339;28;20111;-81
2022/02/04 05:48:59;;;;;;;11.70;6.35;;;-1.90;99.90;;;;;;5098493;28;20028;-79
2022/02/04 05:51:47;;;;;;;11.65;6.25;;;-2.00;99.90;;;;;;5093944;28;20127;-80
2022/02/04 05:57:04;;;;;;;11.40;7.13;;;-2.30;99.90;;;;;;5094699;28;20104;-78
2022/02/04 06:02:25;;;;;;;12.48;7.38;;;-2.40;99.90;;;;;;5094870;28;20097;-78
2022/02/04 06:05:01;;;;;;;38.10;23.05;;;-2.40;99.90;;;;;;5093616;28;20017;-79
2022/02/04 06:08:00;;;;;;;21.92;12.00;;;-2.40;99.90;;;;;;5093130;28;20094;-81
2022/02/04 06:23:52;;;;;;;9.50;7.03;;;-2.60;99.90;;;;;;5094462;28;20028;-79
2022/02/04 06:26:18;;;;;;;15.48;6.18;;;-2.60;99.90;;;;;;5093895;28;20024;-77
2022/02/04 06:28:44;;;;;;;13.82;6.05;;;-2.60;99.90;;;;;;5092613;28;20078;-79
2022/02/04 06:31:10;;;;;;;11.15;6.05;;;-2.60;99.90;;;;;;5092874;28;20475;-78
2022/02/04 06:33:36;;;;;;;14.63;5.80;;;-2.70;99.90;;;;;;5094036;28;20035;-79
2022/02/04 06:36:02;;;;;;;10.20;6.13;;;-2.60;99.90;;;;;;5093892;28;20028;-79
2022/02/04 06:38:27;;;;;;;10.85;6.30;;;-2.60;99.90;;;;;;5092364;28;20030;-80
2022/02/04 06:40:54;;;;;;;11.68;6.75;;;-2.60;99.90;;;;;;5092536;28;20024;-80
2022/02/04 06:43:20;;;;;;;10.77;6.72;;;-2.60;99.90;;;;;;5092204;28;20178;-79
2022/02/04 06:45:45;;;;;;;15.70;8.02;;;-2.60;99.90;;;;;;5092271;28;20111;-79
2022/02/04 06:48:11;;;;;;;11.85;7.07;;;-2.60;99.90;;;;;;5092661;28;20024;-78
2022/02/04 06:50:37;;;;;;;13.85;7.13;;;-2.50;99.90;;;;;;5093265;28;20028;-79
2022/02/04 06:53:04;;;;;;;11.82;6.80;;;-2.50;99.90;;;;;;5093684;28;20016;-79
2022/02/04 06:55:31;;;;;;;11.55;8.13;;;-2.50;99.90;;;;;;5092214;28;20024;-77
2022/02/04 06:57:58;;;;;;;16.15;7.53;;;-2.40;99.90;;;;;;5093253;28;20020;-78
2022/02/04 07:00:26;;;;;;;13.13;6.82;;;-2.40;99.90;;;;;;5093403;28;20016;-79
2022/02/04 07:02:53;;;;;;;14.20;7.07;;;-2.40;99.90;;;;;;5091806;28;20028;-76
2022/02/04 07:05:19;;;;;;;10.35;6.90;;;-2.40;99.90;;;;;;5092284;28;20024;-79
2022/02/04 07:07:52;;;;;;;14.07;6.68;;;-2.30;99.90;;;;;;5092032;28;20421;-77
2022/02/04 07:10:29;;;;;;;10.93;6.90;;;-2.30;99.90;;;;;;5092094;28;20050;-79
2022/02/04 07:13:06;;;;;;;10.77;5.88;;;-2.20;99.90;;;;;;5091649;28;20433;-79
2022/02/04 07:16:22;;;;;;;10.40;6.35;;;-2.20;99.90;;;;;;5091605;28;20085;-80
2022/02/04 07:21:07;;;;;;;11.52;6.60;;;-2.10;99.90;;;;;;5093920;28;20081;-82
2022/02/04 07:23:37;;;;;;;9.60;6.35;;;-2.10;99.90;;;;;;5094327;28;20024;-81
2022/02/04 07:26:04;;;;;;;11.90;7.50;;;-2.00;99.90;;;;;;5092581;28;20090;-79
2022/02/04 07:28:31;;;;;;;13.02;7.47;;;-2.00;99.90;;;;;;5093473;28;20044;-79
2022/02/04 07:30:59;;;;;;;20.45;10.30;;;-1.90;99.90;;;;;;5092401;28;20028;-82
2022/02/04 07:33:37;;;;;;;18.85;10.70;;;-1.80;99.90;;;;;;5091825;28;20043;-80
2022/02/04 07:38:37;;;;;;;23.10;10.52;;;-1.70;99.90;;;;;;5092009;28;20551;-79
2022/02/04 07:41:37;;;;;;;22.73;10.77;;;-1.50;99.90;;;;;;5092826;28;20567;-78
2022/02/04 07:44:03;;;;;;;16.10;8.68;;;-1.50;99.90;;;;;;5091830;28;20099;-79
2022/02/04 07:46:29;;;;;;;14.73;8.15;;;-1.40;99.90;;;;;;5091695;28;20024;-80
2022/02/04 07:48:55;;;;;;;20.45;10.65;;;-1.30;99.90;;;;;;5091645;28;20100;-79
2022/02/04 07:51:20;;;;;;;18.30;11.88;;;-1.20;99.90;;;;;;5091887;28;20615;-81
2022/02/04 07:53:46;;;;;;;24.08;13.65;;;-1.10;99.90;;;;;;5091780;28;20476;-80
2022/02/04 07:56:12;;;;;;;23.23;12.73;;;-1.00;99.90;;;;;;5091739;28;20031;-79
2022/02/04 07:58:38;;;;;;;14.32;10.15;;;-1.00;99.90;;;;;;5092748;28;20494;-79
2022/02/04 08:01:04;;;;;;;13.20;8.48;;;-0.80;99.90;;;;;;5091326;28;20039;-80
2022/02/04 08:03:34;;;;;;;10.88;6.47;;;-0.70;99.90;;;;;;5091614;28;20070;-84
2022/02/04 08:06:14;;;;;;;12.00;7.03;;;-0.70;99.90;;;;;;5094237;28;20028;-83
2022/02/04 08:13:53;;;;;;;16.15;7.50;;;-0.50;99.90;;;;;;5094867;28;20048;-83
2022/02/04 08:19:16;;;;;;;8.48;5.55;;;-0.10;99.90;;;;;;5092934;28;20063;-79
2022/02/04 08:32:40;;;;;;;8.90;6.00;;;0.20;99.90;;;;;;5049925;28;20041;-78
2022/02/04 08:35:27;;;;;;;13.98;7.63;;;0.30;99.90;;;;;;5033279;28;20025;-79
2022/02/04 08:38:20;;;;;;;15.98;7.07;;;0.40;99.90;;;;;;5075292;28;20043;-79
2022/02/04 08:49:26;;;;;;;17.83;7.97;;;0.80;99.90;;;;;;5092539;28;20035;-79
2022/02/04 08:54:42;;;;;;;11.35;6.68;;;1.00;99.90;;;;;;5092122;28;20028;-79
2022/02/04 08:58:03;;;;;;;14.27;8.30;;;1.20;99.90;;;;;;5091994;28;20049;-79
2022/02/04 09:04:58;;;;;;;13.38;8.20;;;2.70;99.90;;;;;;5092189;28;20043;-78
2022/02/04 09:07:28;;;;;;;18.80;9.88;;;2.60;99.90;;;;;;5093412;28;20020;-77
2022/02/04 09:09:58;;;;;;;14.45;8.07;;;2.50;99.90;;;;;;5095871;28;20022;-79
2022/02/04 09:16:56;;;;;;;18.35;7.30;;;2.40;99.90;;;;;;5094667;28;20525;-77
2022/02/04 09:20:35;;;;;;;13.35;7.50;;;2.50;99.90;;;;;;5095552;28;20493;-79
2022/02/04 09:23:01;;;;;;;17.20;6.72;;;2.50;99.90;;;;;;5096138;28;20383;-80
2022/02/04 09:25:27;;;;;;;11.00;7.25;;;2.80;99.90;;;;;;5094695;28;20028;-79
2022/02/04 09:27:53;;;;;;;15.50;7.03;;;3.00;99.90;;;;;;5093842;28;20116;-78
2022/02/04 09:30:20;;;;;;;15.40;6.32;;;3.30;99.90;;;;;;5095128;28;20059;-79
2022/02/04 09:32:46;;;;;;;16.77;6.57;;;3.40;99.90;;;;;;5095149;28;20477;-80
2022/02/04 09:35:18;;;;;;;19.80;8.02;;;3.60;99.90;;;;;;5095034;28;20115;-79
2022/02/04 09:37:46;;;;;;;30.65;13.18;;;3.70;99.90;;;;;;5095458;28;20024;-79
2022/02/04 09:40:13;;;;;;;16.77;8.18;;;3.70;99.90;;;;;;5095246;28;20082;-79
2022/02/04 09:42:39;;;;;;;11.32;6.60;;;3.80;99.90;;;;;;5094903;28;20081;-80
2022/02/04 09:45:10;;;;;;;9.45;5.70;;;3.90;99.90;;;;;;5093720;28;20024;-79
2022/02/04 09:47:37;;;;;;;9.15;5.47;;;4.30;99.90;;;;;;5093785;28;20115;-79
2022/02/04 09:50:11;;;;;;;8.25;5.20;;;4.70;99.90;;;;;;5094553;28;20012;-80
2022/02/04 10:22:26;;;;;;;7.15;4.15;;;5.60;97.40;;;;;;5094519;28;20107;-78
2022/02/04 10:24:57;;;;;;;8.68;4.50;;;5.70;97.10;;;;;;5094664;28;20023;-77
2022/02/04 10:27:26;;;;;;;9.27;4.40;;;5.70;97.10;;;;;;5092609;28;20057;-78
2022/02/04 10:30:01;;;;;;;6.95;4.35;;;5.80;96.40;;;;;;5092823;28;20063;-78
2022/02/04 10:32:47;;;;;;;5.83;4.00;;;5.90;95.80;;;;;;5091936;28;20162;-80
2022/02/04 10:35:15;;;;;;;8.10;4.15;;;6.00;95.60;;;;;;5092839;28;20490;-79
2022/02/04 10:37:45;;;;;;;8.05;3.97;;;6.00;95.60;;;;;;5093960;28;20031;-78
2022/02/04 10:40:46;;;;;;;10.88;4.28;;;6.10;95.20;;;;;;5092426;28;20367;-79
2022/02/04 10:43:37;;;;;;;7.32;4.53;;;6.20;95.00;;;;;;5093562;28;20020;-79
2022/02/04 11:04:14;;;;;;;10.57;4.75;;;7.20;99.90;;;;;;5094004;28;20055;-80
2022/02/04 11:36:49;;;;;;;5.53;2.80;;;8.80;87.50;;;;;;5092710;28;20037;-79
2022/02/04 11:51:42;;;;;;;26.60;12.80;;;9.40;82.50;;;;;;5092567;28;20028;-79
2022/02/04 11:57:03;;;;;;;4.38;2.70;;;9.60;81.70;;;;;;5092233;28;20052;-79
2022/02/04 11:59:38;;;;;;;3.42;2.47;;;9.70;81.40;;;;;;5091631;28;20081;-79
2022/02/04 12:02:29;;;;;;;8.75;4.07;;;9.70;81.80;;;;;;5092531;28;20024;-79
2022/02/04 12:05:07;;;;;;;4.35;2.05;;;9.80;81.40;;;;;;5092536;28;20016;-78
2022/02/04 12:07:43;;;;;;;4.95;2.30;;;9.80;81.30;;;;;;5090517;28;20071;-81
2022/02/04 12:10:12;;;;;;;3.13;2.10;;;9.80;81.00;;;;;;5090643;28;20016;-80
2022/02/04 12:12:53;;;;;;;5.05;2.78;;;9.80;80.70;;;;;;5091124;28;20165;-78
2022/02/04 12:15:28;;;;;;;7.97;2.50;;;9.80;80.00;;;;;;5091585;28;20032;-80
2022/02/04 12:18:03;;;;;;;5.10;2.40;;;9.80;80.70;;;;;;5092622;28;20025;-80
2022/02/04 12:20:50;;;;;;;5.93;2.45;;;9.80;81.20;;;;;;5091364;28;20035;-82
2022/02/04 12:23:28;;;;;;;6.10;2.30;;;9.90;81.40;;;;;;5092094;28;20065;-82
2022/02/04 12:26:01;;;;;;;3.92;2.42;;;9.90;80.70;;;;;;5090570;28;20020;-78
2022/02/04 12:29:05;;;;;;;4.28;3.05;;;10.00;81.70;;;;;;5091820;28;20028;-79
2022/02/04 12:31:33;;;;;;;7.78;2.92;;;10.00;80.10;;;;;;5039911;28;20123;-79
2022/02/04 12:34:03;;;;;;;5.38;2.28;;;10.00;79.80;;;;;;5092048;28;20024;-78
2022/02/04 12:36:39;;;;;;;5.45;2.42;;;10.00;79.30;;;;;;5090776;28;20054;-80
2022/02/04 12:39:15;;;;;;;4.30;3.20;;;10.00;80.10;;;;;;5090702;28;20020;-79
2022/02/04 12:41:51;;;;;;;7.35;2.85;;;10.10;80.80;;;;;;5094825;28;20360;-79
2022/02/04 12:44:21;;;;;;;7.18;2.47;;;10.10;80.40;;;;;;5095972;28;20102;-80
2022/02/04 12:46:55;;;;;;;3.85;2.20;;;10.10;79.50;;;;;;5094579;28;20471;-78
2022/02/04 12:49:27;;;;;;;5.90;2.70;;;10.00;79.40;;;;;;5094576;28;20027;-79
2022/02/04 12:52:05;;;;;;;5.15;2.63;;;10.00;79.60;;;;;;5094413;28;20035;-80
2022/02/04 12:54:39;;;;;;;3.33;2.53;;;9.90;80.60;;;;;;5094334;28;20031;-78
2022/02/04 13:03:05;;;;;;;5.40;3.20;;;9.70;80.70;;;;;;5095519;28;20032;-79
2022/02/04 13:11:11;;;;;;;5.77;2.77;;;9.60;81.40;;;;;;5095208;28;20024;-81
2022/02/04 13:13:45;;;;;;;3.65;2.45;;;9.70;81.40;;;;;;5095398;28;20020;-79
2022/02/04 13:16:29;;;;;;;4.72;2.38;;;9.70;80.90;;;;;;5095206;28;20050;-78
2022/02/04 13:19:05;;;;;;;4.47;2.15;;;9.70;81.20;;;;;;5093757;28;20020;-78
2022/02/04 13:21:33;;;;;;;7.03;2.83;;;9.80;81.10;;;;;;5095150;28;20145;-79
2022/02/04 13:24:04;;;;;;;4.30;2.60;;;9.90;81.10;;;;;;5095045;28;20103;-79
2022/02/04 13:26:31;;;;;;;3.42;2.20;;;10.00;80.40;;;;;;5093592;28;20055;-78
2022/02/04 13:28:59;;;;;;;3.72;2.58;;;10.10;80.50;;;;;;5094859;28;20047;-79
2022/02/04 13:31:26;;;;;;;3.40;2.30;;;10.20;80.40;;;;;;5095216;28;20081;-80
2022/02/04 13:33:53;;;;;;;4.60;2.83;;;10.30;80.80;;;;;;5095243;28;20020;-80
2022/02/04 13:36:34;;;;;;;3.40;2.10;;;10.30;79.90;;;;;;5094053;28;20069;-78
2022/02/04 13:42:13;;;;;;;3.95;2.60;;;10.30;80.30;;;;;;5095225;28;20012;-78
2022/02/04 13:44:58;;;;;;;5.20;2.97;;;10.40;80.10;;;;;;5093904;28;20028;-79
2022/02/04 13:55:55;;;;;;;5.32;2.97;;;10.60;79.00;;;;;;5095019;28;20054;-78
2022/02/04 13:58:55;;;;;;;4.43;3.35;;;10.60;79.90;;;;;;5094655;28;20024;-78
2022/02/04 14:01:34;;;;;;;4.45;2.80;;;10.50;79.80;;;;;;5094688;28;20467;-79
2022/02/04 14:04:03;;;;;;;5.60;3.03;;;10.40;81.10;;;;;;5093528;28;20053;-80
2022/02/04 14:06:31;;;;;;;6.18;3.05;;;10.30;79.90;;;;;;5093499;28;20082;-79
2022/02/04 14:09:08;;;;;;;5.57;2.72;;;10.30;79.80;;;;;;5092874;28;20013;-80
2022/02/04 14:11:43;;;;;;;3.83;2.58;;;10.30;79.90;;;;;;5092438;28;20040;-78
2022/02/04 14:14:11;;;;;;;3.95;2.25;;;10.20;79.80;;;;;;5092885;28;20028;-79
2022/02/04 14:16:39;;;;;;;3.05;2.47;;;10.20;80.90;;;;;;5094199;28;20031;-78
2022/02/04 14:19:06;;;;;;;6.45;2.78;;;10.10;80.80;;;;;;5093936;28;20028;-79
2022/02/04 14:21:33;;;;;;;4.75;2.53;;;10.00;81.40;;;;;;5092206;28;20028;-78
2022/02/04 14:24:05;;;;;;;10.82;2.40;;;9.90;81.60;;;;;;5092455;28;20094;-78
2022/02/04 14:26:36;;;;;;;4.57;2.58;;;9.80;81.90;;;;;;5092647;28;20028;-78
2022/02/04 14:29:09;;;;;;;4.55;1.92;;;9.80;83.80;;;;;;5092435;28;20040;-79
2022/02/04 14:53:13;;;;;;;7.72;3.80;;;9.50;83.60;;;;;;5092977;28;20051;-80
2022/02/04 15:01:21;;;;;;;6.10;3.45;;;9.20;84.40;;;;;;5093417;28;20051;-78
2022/02/04 15:04:10;;;;;;;7.60;5.13;;;9.10;84.60;;;;;;5091740;28;20461;-79
2022/02/04 15:06:39;;;;;;;6.75;3.60;;;9.00;85.10;;;;;;5091654;28;20471;-79
2022/02/04 15:09:08;;;;;;;6.70;3.58;;;9.00;85.50;;;;;;5091371;28;20380;-79
2022/02/04 15:11:36;;;;;;;285.35;198.68;;;8.90;86.20;;;;;;5091795;28;20032;-80
2022/02/04 15:14:05;;;;;;;50.95;36.88;;;8.70;86.40;;;;;;5092158;28;20035;-78
2022/02/04 15:16:33;;;;;;;16.63;11.95;;;8.60;87.20;;;;;;5076753;28;20073;-82
2022/02/04 15:18:59;;;;;;;9.32;4.65;;;8.40;88.00;;;;;;5095253;28;20127;-84
2022/02/04 15:21:25;;;;;;;9.32;4.68;;;8.30;89.10;;;;;;5093227;28;20024;-82
2022/02/04 15:23:53;;;;;;;5.32;3.50;;;8.20;90.30;;;;;;5092403;28;20073;-83
2022/02/04 15:26:27;;;;;;;6.65;3.78;;;8.20;90.60;;;;;;5091600;28;20020;-80
2022/02/04 15:29:04;;;;;;;7.50;4.15;;;8.10;90.90;;;;;;5090684;28;20864;-78
2022/02/04 15:31:38;;;;;;;8.80;3.88;;;8.00;90.90;;;;;;5093300;28;20064;-76
2022/02/04 15:34:06;;;;;;;7.30;3.88;;;8.00;90.90;;;;;;5093710;28;20059;-77
2022/02/04 15:36:43;;;;;;;5.70;3.78;;;7.90;91.00;;;;;;5092804;28;20028;-75
2022/02/04 15:39:12;;;;;;;9.07;4.50;;;7.80;91.10;;;;;;5091911;28;20062;-75
2022/02/04 15:41:39;;;;;;;20.17;10.85;;;7.70;91.30;;;;;;5092234;28;20023;-74
2022/02/04 15:44:33;;;;;;;23.88;12.90;;;7.60;91.40;;;;;;5092335;28;20024;-76
2022/02/04 15:57:42;;;;;;;5.25;3.00;;;6.30;93.50;;;;;;5092099;28;20024;-75
2022/02/04 16:03:13;;;;;;;4.47;2.85;;;5.70;94.60;;;;;;5092072;28;20090;-78
2022/02/04 16:05:37;;;;;;;8.00;3.22;;;5.50;95.60;;;;;;5091947;28;20024;-77
2022/02/04 16:08:03;;;;;;;6.75;2.85;;;5.20;96.40;;;;;;5090751;28;20024;-78
2022/02/04 16:10:48;;;;;;;6.13;3.03;;;5.00;97.10;;;;;;5092043;28;20031;-78
2022/02/04 16:13:27;;;;;;;3.53;2.35;;;4.80;98.10;;;;;;5090471;28;20036;-79
2022/02/04 16:15:59;;;;;;;4.78;2.50;;;4.60;99.30;;;;;;5092287;28;20352;-76
2022/02/04 16:18:30;;;;;;;7.15;2.50;;;4.40;99.90;;;;;;5095817;28;20040;-76
2022/02/04 16:23:35;;;;;;;5.32;2.35;;;4.10;99.90;;;;;;5095735;28;20020;-78
2022/02/04 16:31:11;;;;;;;6.65;2.60;;;3.70;99.90;;;;;;5096696;28;20058;-76
2022/02/04 16:33:37;;;;;;;4.93;2.65;;;3.60;99.90;;;;;;5097246;28;20036;-78
2022/02/04 16:36:06;;;;;;;8.18;5.03;;;3.50;99.90;;;;;;5094733;28;20016;-79
2022/02/04 16:38:31;;;;;;;7.13;4.13;;;3.30;99.90;;;;;;5095780;28;20028;-76
2022/02/04 16:41:04;;;;;;;4.32;2.65;;;3.30;99.90;;;;;;5094548;28;20021;-76
2022/02/04 16:43:30;;;;;;;4.95;3.38;;;3.20;99.90;;;;;;5095519;28;20031;-79
2022/02/04 16:45:56;;;;;;;3.92;3.42;;;3.20;99.90;;;;;;5094229;28;20034;-77
2022/02/04 16:48:22;;;;;;;12.65;4.00;;;3.10;99.90;;;;;;5095473;28;20107;-78
2022/02/04 16:50:49;;;;;;;7.90;3.50;;;3.00;99.90;;;;;;5095577;28;20028;-77
2022/02/04 16:53:15;;;;;;;5.28;3.15;;;2.90;99.90;;;;;;5094238;28;20044;-77
2022/02/04 16:55:41;;;;;;;10.30;4.75;;;2.80;99.90;;;;;;5095584;28;20020;-78
2022/02/04 16:58:08;;;;;;;8.70;4.15;;;2.70;99.90;;;;;;5095667;28;20028;-78
2022/02/04 17:00:34;;;;;;;10.13;4.13;;;2.60;99.90;;;;;;5095283;28;20016;-79
2022/02/04 17:03:06;;;;;;;7.57;3.85;;;2.60;99.90;;;;;;5094021;28;20031;-80
2022/02/04 17:06:07;;;;;;;10.15;3.83;;;2.60;99.90;;;;;;5095182;28;20019;-80
2022/02/04 17:08:34;;;;;;;8.63;4.38;;;2.60;99.90;;;;;;5093555;28;20040;-78
2022/02/04 17:11:08;;;;;;;10.60;5.07;;;2.60;99.90;;;;;;5099229;28;20099;-76
2022/02/04 17:13:34;;;;;;;7.55;3.97;;;2.60;99.90;;;;;;5099646;28;20024;-76
2022/02/04 17:16:00;;;;;;;9.02;4.25;;;2.60;99.90;;;;;;5101285;28;20085;-78
2022/02/04 17:18:26;;;;;;;10.25;4.90;;;2.60;99.90;;;;;;5096554;28;20090;-74
2022/02/04 17:20:52;;;;;;;6.47;3.78;;;2.60;99.90;;;;;;5093857;28;20047;-75
2022/02/04 17:23:41;;;;;;;5.97;3.65;;;2.60;99.90;;;;;;5094980;28;20034;-74
2022/02/04 17:26:07;;;;;;;9.30;4.22;;;2.60;99.90;;;;;;5094647;28;20016;-78
2022/02/04 17:28:33;;;;;;;9.73;4.63;;;2.50;99.90;;;;;;5093516;28;20050;-77
2022/02/04 17:30:59;;;;;;;11.27;6.47;;;2.40;99.90;;;;;;5093545;28;20031;-77
2022/02/04 17:33:26;;;;;;;13.02;4.85;;;2.40;99.90;;;;;;5093788;28;20039;-78
2022/02/04 17:35:56;;;;;;;7.97;4.20;;;2.30;99.90;;;;;;5094969;28;20042;-75
2022/02/04 17:38:26;;;;;;;5.43;3.58;;;2.30;99.90;;;;;;5093318;28;20028;-74
2022/02/04 17:40:53;;;;;;;6.55;4.63;;;2.20;99.90;;;;;;5094910;28;20081;-75
2022/02/04 17:43:20;;;;;;;11.68;6.85;;;2.10;99.90;;;;;;5096218;28;20020;-83
2022/02/04 17:45:45;;;;;;;12.70;7.40;;;2.10;99.90;;;;;;5096889;28;20072;-83
2022/02/04 17:48:22;;;;;;;18.27;8.88;;;2.10;99.90;;;;;;5094927;28;20028;-79
2022/02/04 17:50:51;;;;;;;31.77;14.60;;;2.00;99.90;;;;;;5095093;28;20024;-83
2022/02/04 17:53:26;;;;;;;46.13;20.77;;;2.00;99.90;;;;;;5096548;28;20031;-78
2022/02/04 17:56:07;;;;;;;45.17;20.90;;;2.00;99.90;;;;;;5093079;28;20032;-79
2022/02/04 17:58:41;;;;;;;25.17;12.80;;;2.00;99.90;;;;;;5093520;28;20028;-77
2022/02/04 18:06:32;;;;;;;20.20;10.82;;;2.00;99.90;;;;;;5094592;28;20024;-77
2022/02/04 18:08:59;;;;;;;17.27;9.60;;;2.00;99.90;;;;;;5094340;28;20024;-77
2022/02/04 18:11:26;;;;;;;18.98;8.48;;;2.00;99.90;;;;;;5094431;28;20028;-77
2022/02/04 18:13:52;;;;;;;16.85;8.18;;;2.10;99.90;;;;;;5094480;28;20035;-78
2022/02/04 18:16:18;;;;;;;27.63;14.23;;;2.00;99.90;;;;;;5094407;28;20535;-78
2022/02/04 18:18:44;;;;;;;23.27;12.13;;;2.00;99.90;;;;;;5092860;28;20609;-78
2022/02/04 18:21:10;;;;;;;23.08;9.43;;;2.00;99.90;;;;;;5094234;28;20020;-77
2022/02/04 18:23:35;;;;;;;20.33;9.95;;;1.90;99.90;;;;;;5094250;28;20024;-77
2022/02/04 18:26:01;;;;;;;16.73;9.35;;;1.90;99.90;;;;;;5094201;28;20028;-77
2022/02/04 18:28:29;;;;;;;16.30;9.07;;;1.90;99.90;;;;;;5092650;28;20028;-77
2022/02/04 18:30:55;;;;;;;16.17;9.30;;;1.80;99.90;;;;;;5094331;28;20357;-77
2022/02/04 18:33:21;;;;;;;17.60;10.30;;;1.80;99.90;;;;;;5094020;28;20085;-78
2022/02/04 18:35:56;;;;;;;15.35;8.43;;;1.80;99.90;;;;;;5092719;28;20621;-77
2022/02/04 18:41:47;;;;;;;16.50;6.95;;;1.70;99.90;;;;;;5070798;28;20025;-78
2022/02/04 18:44:13;;;;;;;16.90;8.02;;;1.70;99.90;;;;;;5093869;28;20024;-78
2022/02/04 18:47:01;;;;;;;21.35;10.40;;;1.60;99.90;;;;;;5092133;28;20067;-80
2022/02/04 18:49:38;;;;;;;17.63;8.38;;;1.60;99.90;;;;;;5092637;28;20020;-77
2022/02/04 18:55:06;;;;;;;9.82;6.65;;;1.50;99.90;;;;;;5093696;28;20020;-78
2022/02/04 18:57:30;;;;;;;12.82;7.63;;;1.50;99.90;;;;;;5093417;28;20111;-77
2022/02/04 19:02:23;;;;;;;14.32;7.60;;;1.40;99.90;;;;;;5093428;28;20101;-78
2022/02/04 19:04:56;;;;;;;28.33;13.98;;;1.30;99.90;;;;;;5093574;28;20019;-77
2022/02/04 19:07:31;;;;;;;31.17;14.35;;;1.30;99.90;;;;;;5092917;28;20452;-78
2022/02/04 19:09:57;;;;;;;24.83;13.35;;;1.30;99.90;;;;;;5091571;28;20012;-78
2022/02/04 19:12:31;;;;;;;21.35;10.05;;;1.30;99.90;;;;;;5091385;28;20534;-78
2022/02/04 19:15:18;;;;;;;16.23;8.38;;;1.30;99.90;;;;;;5091590;28;20028;-78
2022/02/04 19:17:48;;;;;;;16.33;7.73;;;1.20;99.90;;;;;;5092589;28;20107;-77
2022/02/04 19:20:26;;;;;;;21.70;9.68;;;1.20;99.90;;;;;;5092700;28;20253;-80
2022/02/04 19:22:58;;;;;;;19.35;10.32;;;1.10;99.90;;;;;;5091570;28;20041;-79
2022/02/04 19:25:27;;;;;;;14.57;7.80;;;1.10;99.90;;;;;;5091563;28;20055;-78
2022/02/04 19:27:53;;;;;;;15.05;8.43;;;1.10;99.90;;;;;;5091364;28;20149;-78
2022/02/04 19:30:19;;;;;;;18.65;8.57;;;1.00;99.90;;;;;;5091214;28;20143;-77
2022/02/04 19:32:46;;;;;;;11.13;7.18;;;0.90;99.90;;;;;;5091220;28;20123;-77
2022/02/04 19:35:12;;;;;;;16.42;7.82;;;1.00;99.90;;;;;;5091424;28;20110;-77
2022/02/04 19:37:38;;;;;;;12.32;7.60;;;0.90;99.90;;;;;;5092394;28;20031;-78